Kezdőlap
METAR-TAF:

METAR-TAF

Repülőterek :

Meiringen, Svájc

földrajzi szélesség: 46-44-25N, földrajzi hosszúság: 8-06-36E, magasság: 577 m

Jelenlegi meteorológiai megfigyelések

A jelentés 14 perccel ezelõtt készült, 18:20 UTC
Kelet-északkeleti szél 13 kt
Hőmérséklet 9°C
Páratartalom 43%
Légköri nyomás 1014 hPa
Látótávolság 10 km, vagy több

METAR: LSMM 011820Z AUTO 06013KT 9999NDV NCD 09/M03 Q1014 RMK

Idő: 20:34 (18:34 UTC)


TAF: hiányzik

Meteorológiai megfigyelések és előrejelzések több, mint 4000 repülőtéren (METAR és TAF jelentéseket).

A térképen piros és sárga pontok jelzik az elérhető meteorológiai állomásokat.

Mozgassa az egeret a pont fölött, hogy megjelenjen az állomás neve.

Azután kattintson az időjárási megfigyelések és előrejelzések megtekintéséhez.

A térkép megváltoztatása: kattintson a fekete keresztel jelölt zöld gombra ráközelítéshez, a vonallal jelölt zöld gombra távolításhoz, vagy a zöld nyilakra a szomszédos térképek eléréséhez.


METAR-TAF: